Time;durP1;ratioP1;P1;durP2;ratioP2;P2;SDS_P1;SDS_P2;PMS_P1;PMS_P2;Temp;Humidity;BMP_temperature;BMP_pressure;BME280_temperature;BME280_humidity;BME280_pressure;Samples;Min_cycle;Max_cycle;Signal;HPM_P1;HPM_P2
2023/12/10 00:00:00;;;;;;;35.63;6.20;;;;;;;6.81;100.00;99721.78;5113017;28;20085;-81
2023/12/10 00:02:26;;;;;;;55.90;6.20;;;;;;;6.78;100.00;99718.59;5112904;28;20460;-79
2023/12/10 00:04:51;;;;;;;49.92;6.32;;;;;;;6.74;100.00;99722.50;5112566;28;20031;-83
2023/12/10 00:07:16;;;;;;;36.70;6.30;;;;;;;6.68;100.00;99727.34;5094683;28;20463;-80
2023/12/10 00:09:42;;;;;;;44.00;6.05;;;;;;;6.67;100.00;99730.13;5113551;28;20059;-80
2023/12/10 00:12:07;;;;;;;33.95;5.18;;;;;;;6.75;100.00;99729.44;5112979;28;20028;-78
2023/12/10 00:14:33;;;;;;;30.13;5.13;;;;;;;6.70;100.00;99722.78;5112935;28;20028;-80
2023/12/10 00:16:58;;;;;;;40.72;4.57;;;;;;;6.69;100.00;99712.34;5112488;28;20427;-81
2023/12/10 00:19:24;;;;;;;33.28;4.57;;;;;;;6.66;100.00;99715.28;5113578;28;20026;-79
2023/12/10 00:21:49;;;;;;;33.38;5.20;;;;;;;6.68;100.00;99737.94;5113308;28;20130;-78
2023/12/10 00:24:15;;;;;;;39.92;6.00;;;;;;;6.64;100.00;99733.06;5113783;28;20147;-80
2023/12/10 00:26:40;;;;;;;39.03;5.75;;;;;;;6.67;100.00;99738.06;5113074;28;20039;-81
2023/12/10 00:29:05;;;;;;;38.10;5.55;;;;;;;6.74;100.00;99736.53;5113634;28;20457;-79
2023/12/10 00:31:31;;;;;;;28.33;4.38;;;;;;;6.83;100.00;99748.06;5112853;28;20028;-79
2023/12/10 00:33:56;;;;;;;35.05;5.00;;;;;;;6.89;100.00;99734.28;5113045;28;20205;-79
2023/12/10 00:36:22;;;;;;;33.10;4.75;;;;;;;6.91;100.00;99756.13;5094480;28;20027;-79
2023/12/10 00:38:47;;;;;;;38.42;4.78;;;;;;;6.95;100.00;99752.22;5112803;28;20049;-77
2023/12/10 00:41:13;;;;;;;26.63;4.85;;;;;;;7.00;100.00;99728.00;5094262;28;20031;-77
2023/12/10 00:43:42;;;;;;;27.75;5.35;;;;;;;7.00;100.00;99734.13;5112430;28;20080;-77
2023/12/10 00:46:08;;;;;;;33.53;5.55;;;;;;;7.04;100.00;99734.66;5111891;28;20092;-79
2023/12/10 00:48:34;;;;;;;28.77;4.70;;;;;;;7.04;100.00;99734.66;5095855;28;20031;-78
2023/12/10 00:51:00;;;;;;;31.27;4.50;;;;;;;7.19;100.00;99740.34;5116019;28;20033;-78
2023/12/10 00:53:25;;;;;;;31.98;4.40;;;;;;;7.28;100.00;99731.53;5116071;28;20024;-78
2023/12/10 00:55:51;;;;;;;34.85;5.15;;;;;;;7.38;100.00;99737.63;5116147;28;20020;-77
2023/12/10 00:58:17;;;;;;;31.30;5.40;;;;;;;7.45;100.00;99747.63;5116256;28;20062;-80
2023/12/10 01:00:42;;;;;;;27.77;5.35;;;;;;;7.57;100.00;99739.34;5097372;28;20027;-78
2023/12/10 01:03:08;;;;;;;31.83;4.50;;;;;;;7.71;100.00;99740.69;5097396;28;20032;-77
2023/12/10 01:05:33;;;;;;;31.90;4.93;;;;;;;7.75;100.00;99747.34;5115685;28;20114;-77
2023/12/10 01:07:58;;;;;;;30.60;4.90;;;;;;;7.73;100.00;99774.94;5115659;28;20078;-77
2023/12/10 01:10:25;;;;;;;41.03;5.10;;;;;;;7.77;100.00;99755.97;5115880;28;20031;-75
2023/12/10 01:12:50;;;;;;;31.30;3.80;;;;;;;7.87;100.00;99750.63;5115854;28;20026;-78
2023/12/10 01:15:16;;;;;;;30.90;5.28;;;;;;;7.90;100.00;99741.56;5115515;28;20020;-78
2023/12/10 01:17:42;;;;;;;36.97;5.22;;;;;;;7.89;100.00;99753.97;5115730;28;20023;-77
2023/12/10 01:20:08;;;;;;;31.73;4.72;;;;;;;7.93;100.00;99773.06;5115357;28;20042;-78
2023/12/10 01:22:33;;;;;;;30.25;5.60;;;;;;;7.98;100.00;99754.06;5115473;28;20027;-76
2023/12/10 01:24:58;;;;;;;35.42;5.68;;;;;;;8.04;100.00;99748.16;5115633;28;20132;-77
2023/12/10 01:27:24;;;;;;;23.58;4.45;;;;;;;8.07;100.00;99799.03;5097658;28;20039;-76
2023/12/10 01:29:49;;;;;;;40.10;5.50;;;;;;;8.05;100.00;99813.44;5115272;28;20024;-77
2023/12/10 01:32:15;;;;;;;35.80;6.60;;;;;;;8.04;100.00;99785.25;5097084;28;20526;-76
2023/12/10 01:34:44;;;;;;;30.95;5.10;;;;;;;8.04;100.00;99780.78;5115209;28;20019;-77
2023/12/10 01:37:09;;;;;;;29.75;5.30;;;;;;;8.07;100.00;99769.06;5115353;28;20028;-76
2023/12/10 01:39:35;;;;;;;28.13;4.55;;;;;;;7.97;100.00;99765.63;5115432;28;20024;-79
2023/12/10 01:42:00;;;;;;;25.58;4.40;;;;;;;7.92;100.00;99779.31;5115095;28;20028;-76
2023/12/10 01:44:26;;;;;;;43.95;5.53;;;;;;;7.88;100.00;99756.75;5096636;28;20024;-78
2023/12/10 01:46:51;;;;;;;33.92;5.05;;;;;;;7.89;100.00;99755.78;5115094;28;20084;-78
2023/12/10 01:49:18;;;;;;;43.22;6.10;;;;;;;7.98;100.00;99784.03;5115048;28;20072;-77
2023/12/10 01:51:45;;;;;;;38.80;5.28;;;;;;;8.03;100.00;99780.94;5115067;28;20118;-76
2023/12/10 01:54:22;;;;;;;31.20;5.40;;;;;;;8.04;100.00;99801.16;5114656;28;20023;-77
2023/12/10 01:56:51;;;;;;;30.83;5.00;;;;;;;7.99;100.00;99772.47;5115097;28;20023;-76
2023/12/10 01:59:18;;;;;;;28.45;4.53;;;;;;;7.89;100.00;99827.28;5114288;28;20027;-78
2023/12/10 02:01:45;;;;;;;26.25;4.35;;;;;;;7.90;100.00;99802.50;5114912;28;20036;-77
2023/12/10 02:04:11;;;;;;;37.50;5.03;;;;;;;7.89;100.00;99814.06;5114458;28;20480;-78
2023/12/10 02:06:37;;;;;;;38.22;6.72;;;;;;;7.90;100.00;99818.38;5114392;28;20509;-78
2023/12/10 02:09:09;;;;;;;35.92;5.45;;;;;;;7.89;100.00;99822.81;5114128;28;20019;-78
2023/12/10 02:11:34;;;;;;;;;;;;;;;8.02;100.00;99832.25;5115165;28;20038;-78
2023/12/10 02:14:00;;;;;;;32.17;4.72;;;;;;;8.02;100.00;99842.88;5096200;28;20279;-78
2023/12/10 02:16:25;;;;;;;41.42;5.57;;;;;;;8.00;100.00;99832.41;5095780;28;20151;-79
2023/12/10 02:18:50;;;;;;;42.28;5.78;;;;;;;7.83;100.00;99839.31;5114313;28;20104;-77
2023/12/10 02:21:17;;;;;;;32.40;5.38;;;;;;;7.70;100.00;99846.72;5114300;28;20475;-76
2023/12/10 02:23:59;;;;;;;40.30;6.28;;;;;;;7.61;100.00;99852.91;5114160;28;20439;-78
2023/12/10 02:26:25;;;;;;;35.40;5.85;;;;;;;7.48;100.00;99846.13;5114588;28;20034;-77
2023/12/10 02:28:50;;;;;;;36.50;5.95;;;;;;;7.42;100.00;99875.81;5115215;28;20024;-78
2023/12/10 02:31:18;;;;;;;30.45;4.63;;;;;;;7.39;100.00;99863.69;5114185;28;20025;-78
2023/12/10 02:33:44;;;;;;;45.53;5.55;;;;;;;7.44;100.00;99886.25;5114200;28;20107;-81
2023/12/10 02:36:09;;;;;;;37.47;5.88;;;;;;;7.36;100.00;99866.63;5113601;28;20111;-80
2023/12/10 02:38:35;;;;;;;36.60;4.85;;;;;;;7.29;100.00;99884.03;5113926;28;20020;-79
2023/12/10 02:41:00;;;;;;;44.55;5.63;;;;;;;7.24;100.00;99883.63;5114259;28;20455;-79
2023/12/10 02:43:26;;;;;;;38.38;5.32;;;;;;;7.23;100.00;99889.91;5113894;28;20055;-78
2023/12/10 02:45:51;;;;;;;40.53;4.75;;;;;;;7.22;100.00;99885.56;5113967;28;20377;-79
2023/12/10 02:48:21;;;;;;;43.58;5.65;;;;;;;7.13;100.00;99891.69;5113328;28;20051;-78
2023/12/10 02:50:47;;;;;;;37.95;5.22;;;;;;;7.06;100.00;99902.00;5113625;28;20074;-78
2023/12/10 02:53:12;;;;;;;29.77;5.60;;;;;;;7.17;100.00;99915.09;5114005;28;20026;-79
2023/12/10 02:55:38;;;;;;;36.30;5.28;;;;;;;7.21;100.00;99910.34;5113177;28;20464;-80
2023/12/10 02:58:03;;;;;;;36.08;5.43;;;;;;;7.29;100.00;99888.50;5113637;28;20027;-78
2023/12/10 03:00:29;;;;;;;28.33;4.78;;;;;;;7.31;100.00;99905.06;5113658;28;20038;-77
2023/12/10 03:02:54;;;;;;;47.13;5.32;;;;;;;7.30;100.00;99914.81;5113557;28;20106;-78
2023/12/10 03:05:20;;;;;;;32.83;5.20;;;;;;;7.28;100.00;99924.69;5113412;28;20028;-79
2023/12/10 03:07:46;;;;;;;40.30;5.70;;;;;;;7.27;100.00;99911.59;5113350;28;20084;-79
2023/12/10 03:10:11;;;;;;;33.70;4.95;;;;;;;7.15;100.00;99942.66;5113409;28;20019;-81
2023/12/10 03:12:37;;;;;;;40.03;5.53;;;;;;;7.10;100.00;99929.84;5095056;28;20031;-78
2023/12/10 03:15:02;;;;;;;45.25;8.38;;;;;;;7.12;100.00;99940.28;5113707;28;20038;-78
2023/12/10 03:17:28;;;;;;;47.20;6.00;;;;;;;7.14;100.00;99941.00;5113098;28;20470;-78
2023/12/10 03:19:53;;;;;;;38.72;5.13;;;;;;;7.15;100.00;99961.16;5113052;28;20615;-76
2023/12/10 03:22:18;;;;;;;38.50;4.63;;;;;;;7.20;100.00;99954.50;5113154;28;20142;-77
2023/12/10 03:24:44;;;;;;;35.17;5.60;;;;;;;7.26;100.00;99966.34;5112989;28;20071;-79
2023/12/10 03:27:09;;;;;;;44.53;5.65;;;;;;;7.29;100.00;99967.88;5113229;28;20024;-77
2023/12/10 03:29:35;;;;;;;49.17;7.05;;;;;;;7.39;100.00;99961.59;5112767;28;20097;-77
2023/12/10 03:32:00;;;;;;;31.08;5.15;;;;;;;7.41;100.00;99964.94;5112729;28;20102;-79
2023/12/10 03:34:26;;;;;;;48.00;5.63;;;;;;;7.55;100.00;99961.06;5113074;28;20115;-77
2023/12/10 03:36:52;;;;;;;34.40;5.15;;;;;;;7.65;100.00;99968.97;5112722;28;20036;-78
2023/12/10 03:39:17;;;;;;;48.45;5.47;;;;;;;7.79;100.00;99980.09;5112662;28;20023;-77
2023/12/10 03:41:42;;;;;;;32.80;5.30;;;;;;;7.87;100.00;99977.59;5112816;28;20073;-76
2023/12/10 03:44:08;;;;;;;36.08;5.22;;;;;;;7.90;100.00;99998.50;5094796;28;20034;-79
2023/12/10 03:46:33;;;;;;;27.77;4.82;;;;;;;7.98;100.00;99992.47;5112591;28;20118;-76
2023/12/10 03:48:58;;;;;;;29.13;5.10;;;;;;;7.97;100.00;99998.75;5112585;28;20019;-77
2023/12/10 03:51:24;;;;;;;32.20;4.95;;;;;;;7.89;100.00;100024.13;5112525;28;20452;-77
2023/12/10 03:53:50;;;;;;;48.05;5.88;;;;;;;7.94;100.00;100007.81;5112518;28;20024;-78
2023/12/10 03:56:15;;;;;;;30.20;5.15;;;;;;;8.00;100.00;100017.00;5112337;28;20490;-78
2023/12/10 03:58:41;;;;;;;27.85;4.93;;;;;;;8.09;100.00;100030.25;5112263;28;20149;-79
2023/12/10 04:01:06;;;;;;;36.58;4.63;;;;;;;8.10;100.00;100012.50;5112744;28;20034;-77
2023/12/10 04:03:32;;;;;;;36.58;5.40;;;;;;;8.11;100.00;100022.16;5112436;28;20315;-77
2023/12/10 04:05:57;;;;;;;32.60;4.93;;;;;;;8.12;100.00;100037.03;5112644;28;20139;-78
2023/12/10 04:08:22;;;;;;;40.22;5.28;;;;;;;8.14;100.00;100037.75;5112411;28;20019;-78
2023/12/10 04:10:48;;;;;;;34.40;5.80;;;;;;;8.18;100.00;100047.09;5112845;28;20039;-77
2023/12/10 04:13:13;;;;;;;28.40;5.50;;;;;;;8.17;100.00;100047.25;5112666;28;20527;-78
2023/12/10 04:15:38;;;;;;;34.92;4.53;;;;;;;8.27;100.00;100074.53;5112013;28;20031;-77
2023/12/10 04:18:05;;;;;;;33.60;6.22;;;;;;;8.24;100.00;100070.38;5093983;28;20032;-77
2023/12/10 04:20:30;;;;;;;42.53;5.47;;;;;;;8.22;100.00;100063.53;5112295;28;20119;-78
2023/12/10 04:22:56;;;;;;;37.90;4.45;;;;;;;8.17;100.00;100095.78;5113944;28;20102;-78
2023/12/10 04:25:22;;;;;;;39.35;5.40;;;;;;;8.19;100.00;100092.97;5098072;28;20039;-80
2023/12/10 04:27:47;;;;;;;30.45;4.10;;;;;;;8.27;100.00;100099.25;5098834;28;20070;-81
2023/12/10 04:30:13;;;;;;;27.50;4.63;;;;;;;8.28;100.00;100092.97;5116438;28;20106;-79
2023/12/10 04:32:38;;;;;;;28.02;3.97;;;;;;;8.27;100.00;100098.38;5116157;28;20019;-79
2023/12/10 04:35:04;;;;;;;38.08;4.93;;;;;;;8.24;100.00;100111.91;5116071;28;20023;-77
2023/12/10 04:37:29;;;;;;;31.52;4.78;;;;;;;8.23;100.00;100120.88;5116162;28;20451;-78
2023/12/10 04:39:54;;;;;;;29.80;5.00;;;;;;;8.17;100.00;100129.38;5116494;28;20359;-79
2023/12/10 04:42:20;;;;;;;40.30;5.53;;;;;;;8.21;100.00;100152.81;5116271;28;20115;-79
2023/12/10 04:44:46;;;;;;;28.70;5.35;;;;;;;8.26;100.00;100126.72;5116124;28;20019;-77
2023/12/10 04:47:11;;;;;;;26.10;5.25;;;;;;;8.25;100.00;100130.34;5116666;28;20031;-79
2023/12/10 04:49:36;;;;;;;35.97;4.93;;;;;;;8.24;100.00;100136.63;5115979;28;20359;-77
2023/12/10 04:52:02;;;;;;;30.25;5.32;;;;;;;8.24;100.00;100149.03;5115988;28;20420;-78
2023/12/10 04:54:27;;;;;;;32.47;4.75;;;;;;;8.23;100.00;100152.69;5115849;28;20032;-78
2023/12/10 04:56:53;;;;;;;31.77;6.03;;;;;;;8.25;100.00;100163.97;5116545;28;20036;-78
2023/12/10 04:59:18;;;;;;;34.40;6.82;;;;;;;8.23;100.00;100150.03;5116080;28;20028;-78
2023/12/10 05:01:43;;;;;;;24.92;4.70;;;;;;;8.18;100.00;100189.34;5116187;28;20051;-78
2023/12/10 05:04:09;;;;;;;25.55;4.13;;;;;;;8.08;100.00;100168.97;5115947;28;20052;-78
2023/12/10 05:06:34;;;;;;;38.88;6.38;;;;;;;8.04;100.00;100193.25;5115984;28;20450;-79
2023/12/10 05:09:02;;;;;;;33.28;5.53;;;;;;;8.02;100.00;100180.16;5116440;28;20028;-78
2023/12/10 05:11:28;;;;;;;32.30;5.20;;;;;;;8.01;100.00;100185.59;5115547;28;20060;-79
2023/12/10 05:13:53;;;;;;;30.50;4.30;;;;;;;7.98;100.00;100191.97;5115657;28;20536;-78
2023/12/10 05:16:18;;;;;;;30.17;5.22;;;;;;;7.94;100.00;100194.09;5115378;28;20042;-80
2023/12/10 05:18:44;;;;;;;29.35;5.90;;;;;;;7.95;100.00;100214.28;5115766;28;20042;-76
2023/12/10 05:21:09;;;;;;;31.65;5.47;;;;;;;7.95;100.00;100197.56;5115479;28;20157;-77
2023/12/10 05:23:35;;;;;;;33.05;5.35;;;;;;;7.93;100.00;100197.69;5115144;28;20498;-76
2023/12/10 05:26:00;;;;;;;35.63;5.15;;;;;;;7.89;100.00;100204.25;5097730;28;20118;-76
2023/12/10 05:28:25;;;;;;;41.35;6.07;;;;;;;7.91;100.00;100223.50;5115892;28;20031;-80
2023/12/10 05:30:51;;;;;;;40.20;4.50;;;;;;;7.92;100.00;100225.16;5115389;28;20358;-78
2023/12/10 05:33:16;;;;;;;35.00;5.70;;;;;;;7.93;100.00;100220.72;5115741;28;20024;-78
2023/12/10 05:35:42;;;;;;;26.90;4.25;;;;;;;7.97;100.00;100243.28;5114021;28;20482;-80
2023/12/10 05:38:09;;;;;;;45.78;5.32;;;;;;;7.94;100.00;100249.72;5115724;28;20104;-80
2023/12/10 05:40:35;;;;;;;30.90;4.80;;;;;;;7.89;100.00;100254.56;5114906;28;20171;-81
2023/12/10 05:43:00;;;;;;;40.10;5.70;;;;;;;7.89;100.00;100262.50;5115448;28;20024;-79
2023/12/10 05:45:27;;;;;;;24.17;4.32;;;;;;;7.91;100.00;100276.47;5115302;28;20030;-81
2023/12/10 05:47:53;;;;;;;29.67;4.28;;;;;;;7.95;100.00;100275.22;5114892;28;20038;-79
2023/12/10 05:50:18;;;;;;;34.63;4.90;;;;;;;7.99;100.00;100283.75;5115149;28;20024;-81
2023/12/10 05:52:44;;;;;;;29.63;4.97;;;;;;;8.06;100.00;100271.63;5114805;28;20110;-78
2023/12/10 05:55:09;;;;;;;40.08;5.20;;;;;;;8.07;100.00;100293.66;5115156;28;20134;-80
2023/12/10 05:57:35;;;;;;;38.65;6.15;;;;;;;8.08;100.00;100300.66;5114492;28;20269;-81
2023/12/10 06:00:00;;;;;;;25.17;4.78;;;;;;;8.08;100.00;100290.03;5114798;28;20028;-80
2023/12/10 06:02:26;;;;;;;30.13;4.90;;;;;;;8.06;100.00;100294.63;5114457;28;20031;-80
2023/12/10 06:04:52;;;;;;;29.67;4.70;;;;;;;8.10;100.00;100296.84;5096092;28;20052;-79
2023/12/10 06:07:17;;;;;;;24.42;5.00;;;;;;;8.12;100.00;100312.63;5096189;28;20031;-79
2023/12/10 06:09:43;;;;;;;32.08;4.30;;;;;;;8.07;100.00;100334.22;5114705;28;20028;-81
2023/12/10 06:12:09;;;;;;;46.88;5.53;;;;;;;8.10;100.00;100341.91;5114588;28;20107;-79
2023/12/10 06:14:34;;;;;;;29.58;5.30;;;;;;;8.11;100.00;100340.13;5114635;28;20140;-78
2023/12/10 06:17:00;;;;;;;24.95;4.18;;;;;;;8.14;100.00;100339.00;5114674;28;20077;-79
2023/12/10 06:19:26;;;;;;;33.58;5.35;;;;;;;8.13;100.00;100343.47;5114288;28;20031;-79
2023/12/10 06:21:51;;;;;;;24.45;4.88;;;;;;;8.15;100.00;100359.22;5114676;28;20460;-78
2023/12/10 06:24:16;;;;;;;30.92;5.18;;;;;;;8.12;100.00;100382.38;5114278;28;20356;-78
2023/12/10 06:26:42;;;;;;;28.88;4.88;;;;;;;8.12;100.00;100355.03;5114077;28;20067;-79
2023/12/10 06:29:07;;;;;;;33.35;4.55;;;;;;;8.15;100.00;100357.44;5114546;28;20028;-78
2023/12/10 06:31:32;;;;;;;27.25;4.18;;;;;;;8.10;100.00;100370.22;5114121;28;20066;-80
2023/12/10 06:33:58;;;;;;;27.02;4.20;;;;;;;8.11;100.00;100375.41;5113939;28;20023;-81
2023/12/10 06:36:23;;;;;;;26.70;4.20;;;;;;;8.17;100.00;100391.75;5114014;28;20036;-77
2023/12/10 06:38:48;;;;;;;31.67;7.15;;;;;;;8.15;100.00;100389.22;5114278;28;20024;-80
2023/12/10 06:41:14;;;;;;;33.45;4.80;;;;;;;8.17;100.00;100389.09;5114005;28;20547;-80
2023/12/10 06:43:40;;;;;;;32.08;4.93;;;;;;;8.19;100.00;100400.38;5113651;28;20076;-79
2023/12/10 06:46:06;;;;;;;24.13;4.68;;;;;;;8.18;100.00;100399.56;5096366;28;20459;-79
2023/12/10 06:48:33;;;;;;;31.92;4.90;;;;;;;8.15;100.00;100398.97;5114810;28;20047;-80
2023/12/10 06:50:59;;;;;;;29.67;4.05;;;;;;;8.14;100.00;100397.31;5115656;28;20019;-78
2023/12/10 06:53:24;;;;;;;29.58;5.32;;;;;;;8.10;100.00;100404.69;5096770;28;20054;-80
2023/12/10 06:55:50;;;;;;;28.42;3.83;;;;;;;8.09;100.00;100398.53;5114639;28;20051;-79
2023/12/10 06:58:15;;;;;;;37.35;4.53;;;;;;;8.05;100.00;100420.16;5113895;28;20439;-78
2023/12/10 07:00:40;;;;;;;30.73;5.57;;;;;;;8.00;100.00;100414.38;5113553;28;20028;-79
2023/12/10 07:03:06;;;;;;;27.52;4.53;;;;;;;8.03;100.00;100417.63;5113669;28;20107;-78
2023/12/10 07:05:31;;;;;;;34.50;4.10;;;;;;;8.04;100.00;100429.88;5113485;28;20542;-78
2023/12/10 07:07:57;;;;;;;24.33;4.30;;;;;;;8.00;100.00;100419.69;5113301;28;20020;-78
2023/12/10 07:10:22;;;;;;;26.08;4.78;;;;;;;7.97;100.00;100426.09;5113528;28;20039;-78
2023/12/10 07:12:53;;;;;;;25.35;4.75;;;;;;;7.94;100.00;100429.00;5113238;28;20038;-80
2023/12/10 07:15:18;;;;;;;25.40;4.32;;;;;;;8.02;100.00;100455.69;5113865;28;20089;-77
2023/12/10 07:17:44;;;;;;;24.60;4.65;;;;;;;8.04;100.00;100455.56;5113066;28;20024;-79
2023/12/10 07:20:10;;;;;;;32.08;4.93;;;;;;;8.01;100.00;100469.91;5112916;28;20404;-78
2023/12/10 07:22:35;;;;;;;21.00;4.15;;;;;;;8.03;100.00;100473.28;5113221;28;20050;-80
2023/12/10 07:25:04;;;;;;;31.70;4.35;;;;;;;8.03;100.00;100469.75;5113659;28;20051;-79
2023/12/10 07:27:30;;;;;;;31.92;5.00;;;;;;;8.00;100.00;100475.31;5113367;28;20403;-78
2023/12/10 07:29:55;;;;;;;29.75;4.72;;;;;;;7.97;100.00;100471.13;5112865;28;20072;-78
2023/12/10 07:32:21;;;;;;;35.20;4.72;;;;;;;7.95;100.00;100475.72;5113022;28;20027;-77
2023/12/10 07:34:46;;;;;;;30.73;5.13;;;;;;;7.90;100.00;100472.63;5094589;28;20059;-78
2023/12/10 07:37:12;;;;;;;31.08;4.65;;;;;;;7.91;100.00;100480.47;5112869;28;20031;-77
2023/12/10 07:39:37;;;;;;;35.67;4.22;;;;;;;7.93;100.00;100489.09;5112902;28;20032;-81
2023/12/10 07:42:02;;;;;;;34.30;4.65;;;;;;;7.93;100.00;100501.53;5112871;28;20462;-78
2023/12/10 07:44:28;;;;;;;33.33;5.18;;;;;;;7.94;100.00;100506.69;5094680;28;20024;-78
2023/12/10 07:46:53;;;;;;;24.48;4.20;;;;;;;7.95;100.00;100504.88;5113125;28;20420;-79
2023/12/10 07:49:19;;;;;;;23.38;4.25;;;;;;;7.97;100.00;100515.34;5113520;28;20467;-79
2023/12/10 07:51:44;;;;;;;32.58;4.63;;;;;;;7.98;100.00;100511.72;5112715;28;20024;-78
2023/12/10 07:54:10;;;;;;;36.38;4.25;;;;;;;7.98;100.00;100499.31;5112778;28;20366;-79
2023/12/10 07:56:35;;;;;;;32.30;4.25;;;;;;;8.02;100.00;100513.16;5112576;28;20068;-80
2023/12/10 07:59:00;;;;;;;25.83;4.22;;;;;;;8.01;100.00;100522.88;5115638;28;20062;-79
2023/12/10 08:01:26;;;;;;;19.20;3.67;;;;;;;7.96;100.00;100527.75;5116960;28;20103;-79
2023/12/10 08:03:51;;;;;;;25.05;4.63;;;;;;;8.00;100.00;100518.59;5099091;28;20023;-79
2023/12/10 08:06:17;;;;;;;19.33;3.42;;;;;;;7.99;100.00;100527.50;5117448;28;20027;-79
2023/12/10 08:08:42;;;;;;;25.50;3.95;;;;;;;8.00;100.00;100528.31;5116715;28;20511;-78
2023/12/10 08:11:07;;;;;;;37.00;5.15;;;;;;;8.02;100.00;100527.22;5116703;28;20023;-77
2023/12/10 08:13:33;;;;;;;32.67;4.47;;;;;;;8.02;100.00;100527.22;5117269;28;20099;-78
2023/12/10 08:15:58;;;;;;;23.13;3.38;;;;;;;8.02;100.00;100544.94;5116854;28;20329;-80
2023/12/10 08:18:24;;;;;;;35.30;4.20;;;;;;;8.04;100.00;100540.34;5116326;28;20035;-77
2023/12/10 08:20:49;;;;;;;29.73;3.92;;;;;;;8.05;100.00;100542.88;5116700;28;20042;-79
2023/12/10 08:23:15;;;;;;;22.15;4.43;;;;;;;8.08;100.00;100557.66;5115865;28;20065;-78
2023/12/10 08:25:40;;;;;;;29.88;4.13;;;;;;;8.08;100.00;100547.06;5116382;28;20067;-78
2023/12/10 08:28:05;;;;;;;37.65;4.90;;;;;;;8.05;100.00;100539.38;5117059;28;20059;-77
2023/12/10 08:30:31;;;;;;;31.27;3.95;;;;;;;8.07;100.00;100553.34;5116543;28;20020;-77
2023/12/10 08:32:56;;;;;;;33.42;4.20;;;;;;;8.05;100.00;100553.47;5097991;28;20031;-76
2023/12/10 08:35:22;;;;;;;27.70;4.63;;;;;;;8.05;100.00;100558.75;5116023;28;20439;-77
2023/12/10 08:37:47;;;;;;;28.88;4.10;;;;;;;8.09;100.00;100543.44;5116008;28;20038;-77
2023/12/10 08:40:14;;;;;;;29.48;4.20;;;;;;;8.11;100.00;100552.94;5116094;28;20134;-76
2023/12/10 08:42:40;;;;;;;25.83;4.88;;;;;;;8.07;100.00;100548.03;5116699;28;20445;-79
2023/12/10 08:45:05;;;;;;;25.65;3.83;;;;;;;8.00;100.00;100563.63;5115972;28;20055;-76
2023/12/10 08:47:31;;;;;;;29.55;4.68;;;;;;;7.94;100.00;100564.09;5116325;28;20035;-77
2023/12/10 08:49:56;;;;;;;30.27;4.43;;;;;;;7.92;100.00;100571.34;5115884;28;20112;-79
2023/12/10 08:52:23;;;;;;;25.67;5.07;;;;;;;7.88;100.00;100572.56;5115512;28;20023;-76
2023/12/10 08:54:48;;;;;;;20.98;3.60;;;;;;;7.81;100.00;100574.91;5115503;28;20120;-78
2023/12/10 08:57:14;;;;;;;33.10;4.97;;;;;;;7.79;100.00;100589.25;5115480;28;20378;-79
2023/12/10 08:59:39;;;;;;;22.52;3.65;;;;;;;7.76;100.00;100580.59;5115087;28;20023;-74
2023/12/10 09:02:05;;;;;;;27.90;3.97;;;;;;;7.74;100.00;100592.28;5115206;28;20371;-74
2023/12/10 09:04:31;;;;;;;25.67;3.92;;;;;;;7.76;100.00;100585.88;5115489;28;20444;-76
2023/12/10 09:06:56;;;;;;;19.20;3.97;;;;;;;7.81;100.00;100585.50;5114888;28;20031;-76
2023/12/10 09:09:21;;;;;;;25.08;3.97;;;;;;;7.86;100.00;100601.00;5114367;28;20350;-80
2023/12/10 09:11:47;;;;;;;18.10;3.30;;;;;;;7.88;100.00;100614.97;5115639;28;20024;-77
2023/12/10 09:14:13;;;;;;;22.00;3.90;;;;;;;7.91;100.00;100618.22;5115516;28;20027;-76
2023/12/10 09:16:39;;;;;;;31.15;5.15;;;;;;;7.91;100.00;100602.31;5115575;28;20049;-76
2023/12/10 09:19:04;;;;;;;25.70;3.95;;;;;;;7.93;100.00;100607.50;5116419;28;20122;-75
2023/12/10 09:21:29;;;;;;;29.77;4.28;;;;;;;8.00;100.00;100606.00;5116799;28;20024;-79
2023/12/10 09:23:56;;;;;;;30.15;4.25;;;;;;;8.16;100.00;100602.91;5116804;28;20095;-77
2023/12/10 09:26:21;;;;;;;26.50;4.15;;;;;;;8.26;100.00;100627.66;5097766;28;20035;-78
2023/12/10 09:28:47;;;;;;;26.25;3.85;;;;;;;8.35;100.00;100609.31;5115979;28;20371;-76
2023/12/10 09:31:12;;;;;;;27.42;4.57;;;;;;;8.40;100.00;100620.34;5115106;28;20088;-75
2023/12/10 09:33:38;;;;;;;28.88;4.03;;;;;;;8.35;100.00;100604.00;5114913;28;20023;-76
2023/12/10 09:36:03;;;;;;;29.60;3.88;;;;;;;8.35;100.00;100628.69;5114486;28;20068;-75
2023/12/10 09:38:29;;;;;;;22.38;4.68;;;;;;;8.26;100.00;100638.25;5096460;28;20118;-76
2023/12/10 09:40:54;;;;;;;27.42;4.63;;;;;;;8.17;100.00;100627.63;5096380;28;20178;-77
2023/12/10 09:43:19;;;;;;;30.52;4.00;;;;;;;8.19;100.00;100628.31;5114259;28;20028;-75
2023/12/10 09:45:45;;;;;;;30.08;3.72;;;;;;;8.23;100.00;100640.34;5114993;28;20024;-75
2023/12/10 09:48:11;;;;;;;18.42;3.15;;;;;;;8.26;100.00;100634.78;5114701;28;20328;-79
2023/12/10 09:50:38;;;;;;;23.15;3.85;;;;;;;8.29;100.00;100645.13;5114801;28;20028;-77
2023/12/10 09:53:05;;;;;;;19.60;3.70;;;;;;;8.35;100.00;100644.59;5114937;28;20031;-76
2023/12/10 09:55:30;;;;;;;27.70;4.43;;;;;;;8.44;100.00;100648.31;5096239;28;20031;-77
2023/12/10 09:57:56;;;;;;;30.48;4.40;;;;;;;8.52;100.00;100634.41;5114511;28;20071;-76
2023/12/10 10:00:21;;;;;;;33.40;5.25;;;;;;;8.59;100.00;100624.97;5114124;28;20038;-76
2023/12/10 10:02:47;;;;;;;24.75;3.60;;;;;;;8.64;100.00;100639.53;5114458;28;20476;-77
2023/12/10 10:05:12;;;;;;;26.77;3.92;;;;;;;8.67;100.00;100627.78;5114385;28;20479;-77
2023/12/10 10:07:38;;;;;;;24.23;3.55;;;;;;;8.74;100.00;100638.72;5114255;28;20066;-75
2023/12/10 10:10:05;;;;;;;23.35;3.30;;;;;;;8.78;100.00;100642.81;5114678;28;20123;-75
2023/12/10 10:12:31;;;;;;;24.70;3.53;;;;;;;8.83;100.00;100633.44;5114158;28;20024;-77
2023/12/10 10:14:58;;;;;;;31.27;4.45;;;;;;;8.90;100.00;100640.91;5114878;28;20031;-78
2023/12/10 10:17:32;;;;;;;24.15;3.78;;;;;;;8.79;100.00;100631.19;5114167;28;20028;-78
2023/12/10 10:19:57;;;;;;;24.08;3.58;;;;;;;8.72;100.00;100630.91;5113847;28;20024;-77
2023/12/10 10:22:23;;;;;;;21.55;3.22;;;;;;;8.69;100.00;100631.16;5095215;28;20076;-79
2023/12/10 10:24:51;;;;;;;24.55;3.83;;;;;;;8.69;100.00;100633.81;5113658;28;20054;-78
2023/12/10 10:27:17;;;;;;;27.92;4.10;;;;;;;8.72;100.00;100632.69;5114073;28;20027;-79
2023/12/10 10:29:43;;;;;;;19.92;4.07;;;;;;;8.72;100.00;100630.91;5113440;28;20024;-78
2023/12/10 10:32:10;;;;;;;26.02;3.00;;;;;;;8.68;100.00;100618.03;5113959;28;20028;-78
2023/12/10 10:34:35;;;;;;;23.40;4.57;;;;;;;8.77;100.00;100618.06;5113746;28;20047;-78
2023/12/10 10:37:00;;;;;;;23.00;3.95;;;;;;;8.89;100.00;100615.34;5114090;28;20067;-80
2023/12/10 10:39:29;;;;;;;21.05;3.63;;;;;;;9.03;100.00;100625.56;5114072;28;20070;-79
2023/12/10 10:41:54;;;;;;;26.70;3.78;;;;;;;9.23;100.00;100609.72;5114753;28;20024;-78
2023/12/10 10:44:20;;;;;;;51.47;4.10;;;;;;;9.45;100.00;100611.28;5114425;28;20363;-81
2023/12/10 10:46:45;;;;;;;22.70;4.00;;;;;;;9.58;100.00;100611.88;5114488;28;20024;-79
2023/12/10 10:49:11;;;;;;;20.85;3.60;;;;;;;9.74;100.00;100602.53;5114514;28;20024;-81
2023/12/10 10:51:37;;;;;;;18.67;3.53;;;;;;;9.80;100.00;100647.97;5114117;28;20110;-79
2023/12/10 10:54:04;;;;;;;17.73;3.42;;;;;;;9.63;100.00;100608.78;5095741;28;20027;-81
2023/12/10 10:56:29;;;;;;;29.92;4.60;;;;;;;9.62;100.00;100610.63;5096535;28;20039;-78
2023/12/10 10:58:55;;;;;;;24.98;3.83;;;;;;;9.65;100.00;100605.03;5114309;28;20028;-78
2023/12/10 11:01:41;;;;;;;26.35;3.80;;;;;;;9.62;100.00;100612.44;5114050;28;20076;-77
2023/12/10 11:04:15;;;;;;;18.45;3.33;;;;;;;9.55;100.00;100588.25;5114842;28;20031;-80
2023/12/10 11:06:41;;;;;;;20.70;2.75;;;;;;;9.48;100.00;100587.97;5114117;28;20032;-78
2023/12/10 11:09:07;;;;;;;26.42;4.57;;;;;;;9.44;100.00;100594.53;5096078;28;20419;-79
2023/12/10 11:11:42;;;;;;;32.53;3.53;;;;;;;9.43;100.00;100584.03;5113850;28;20036;-76